Time;durP1;ratioP1;P1;durP2;ratioP2;P2;SDS_P1;SDS_P2;PMS_P1;PMS_P2;Temp;Humidity;BMP_temperature;BMP_pressure;BME280_temperature;BME280_humidity;BME280_pressure;Samples;Min_cycle;Max_cycle;Signal;HPM_P1;HPM_P2
2021/12/16 04:31:00;;;;;;;18.93;13.53;;;;;;;9.58;58.84;100567.69;8075962;23;20247;-81
2021/12/16 04:34:23;;;;;;;18.73;14.20;;;;;;;10.08;58.01;100584.97;6906434;28;20229;-81
2021/12/16 04:37:45;;;;;;;20.67;13.33;;;;;;;10.13;57.44;100577.25;6925963;28;20216;-81
2021/12/16 04:41:10;;;;;;;19.37;13.27;;;;;;;9.99;58.18;100579.63;6914520;28;20230;-81
2021/12/16 04:44:32;;;;;;;18.77;13.87;;;;;;;9.98;57.89;100572.56;6898659;28;20212;-81
2021/12/16 04:47:56;;;;;;;18.50;13.87;;;;;;;9.67;58.71;100536.28;6899052;28;20204;-80
2021/12/16 04:51:18;;;;;;;20.13;13.67;;;;;;;9.85;58.67;100574.81;6898645;28;20218;-80
2021/12/16 04:54:41;;;;;;;19.23;13.37;;;;;;;9.46;59.32;100578.88;6898109;28;20265;-81
2021/12/16 04:58:02;;;;;;;20.87;14.20;;;;;;;9.26;60.84;100572.81;6898935;28;20222;-80
2021/12/16 05:01:24;;;;;;;21.53;14.77;;;;;;;9.67;58.98;100541.69;6898790;28;20230;-81
2021/12/16 05:04:49;;;;;;;18.27;12.37;;;;;;;9.73;58.87;100546.44;6897208;28;20214;-81
2021/12/16 05:08:10;;;;;;;19.03;13.80;;;;;;;9.81;58.78;100576.97;6897602;28;20210;-81
2021/12/16 05:11:34;;;;;;;16.17;12.77;;;;;;;9.80;58.66;100571.78;6898042;28;20595;-82
2021/12/16 05:14:56;;;;;;;17.90;12.67;;;;;;;9.61;59.10;100578.19;6897010;28;20847;-80
2021/12/16 05:18:22;;;;;;;18.00;12.50;;;;;;;9.71;59.14;100580.78;6898045;28;20214;-80
2021/12/16 05:21:51;;;;;;;15.07;11.53;;;;;;;9.47;58.88;100546.44;6897172;28;20320;-80
2021/12/16 05:25:22;;;;;;;15.37;11.00;;;;;;;9.58;59.13;100580.34;6896389;28;20663;-81
2021/12/16 05:28:46;;;;;;;19.93;13.70;;;;;;;9.17;60.10;100543.28;6898037;28;20599;-81
2021/12/16 05:32:08;;;;;;;20.17;12.23;;;;;;;9.15;60.14;100582.97;6897195;28;20237;-81
2021/12/16 05:35:31;;;;;;;18.03;11.73;;;;;;;8.87;60.10;100567.88;6896667;28;20229;-81
2021/12/16 05:38:54;;;;;;;16.67;11.50;;;;;;;8.68;61.59;100600.28;6897158;28;20721;-80
2021/12/16 05:42:16;;;;;;;18.13;11.17;;;;;;;9.10;60.33;100582.59;6896955;28;21080;-83
2021/12/16 05:45:38;;;;;;;16.73;10.97;;;;;;;9.63;58.85;100605.78;6896662;28;20211;-82
2021/12/16 05:49:02;;;;;;;15.97;11.43;;;;;;;9.61;58.27;100583.56;6896192;28;20208;-82
2021/12/16 05:52:23;;;;;;;13.40;10.43;;;;;;;9.82;57.96;100632.56;6895459;28;20222;-80
2021/12/16 05:55:47;;;;;;;14.80;11.37;;;;;;;9.94;57.62;100619.69;6895955;28;20699;-81
2021/12/16 05:59:11;;;;;;;15.37;10.73;;;;;;;10.08;56.80;100633.47;6896057;28;20213;-81
2021/12/16 06:02:33;;;;;;;18.00;11.50;;;;;;;9.94;57.30;100619.69;6896736;28;20231;-81
2021/12/16 06:05:55;;;;;;;13.20;10.03;;;;;;;10.06;56.76;100642.72;6894778;28;20214;-82
2021/12/16 06:09:16;;;;;;;15.47;10.73;;;;;;;10.13;56.96;100644.63;6896458;28;20210;-80
2021/12/16 06:12:39;;;;;;;15.33;11.43;;;;;;;9.97;56.92;100614.81;6896188;28;20233;-80
2021/12/16 06:22:25;;;;;;;16.83;10.83;;;;;;;10.45;56.81;100654.78;6880087;28;20232;-80
2021/12/16 06:27:03;;;;;;;15.63;11.13;;;;;;;10.00;57.63;100646.00;6868817;28;20195;-81
2021/12/16 06:30:29;;;;;;;22.03;13.50;;;;;;;10.20;56.86;100650.22;6883014;28;20205;-79
2021/12/16 06:33:50;;;;;;;16.43;11.50;;;;;;;10.10;56.76;100639.53;6902780;28;20217;-80
2021/12/16 06:37:13;;;;;;;54.40;39.60;;;;;;;9.93;56.92;100607.22;6897755;28;20237;-80
2021/12/16 06:40:34;;;;;;;17.10;11.63;;;;;;;9.73;57.75;100629.94;6893997;28;20233;-80
2021/12/16 06:43:59;;;;;;;18.13;12.53;;;;;;;10.11;57.54;100645.78;6893676;28;20215;-80
2021/12/16 06:47:29;;;;;;;19.57;12.70;;;;;;;10.19;57.36;100640.44;6902139;28;20214;-80
2021/12/16 06:50:54;;;;;;;16.30;10.67;;;;;;;10.34;56.75;100650.47;6920290;28;20307;-79
2021/12/16 06:54:23;;;;;;;16.37;11.80;;;;;;;10.42;56.72;100647.00;6917126;28;20232;-80
2021/12/16 06:57:52;;;;;;;18.47;11.60;;;;;;;10.15;57.04;100644.47;6922666;28;20257;-80
2021/12/16 07:01:26;;;;;;;18.40;12.93;;;;;;;9.82;57.81;100654.13;6923631;28;20231;-79
2021/12/16 07:04:49;;;;;;;18.67;11.83;;;;;;;10.25;56.77;100645.19;6924000;28;20203;-82
2021/12/16 07:08:14;;;;;;;16.57;11.30;;;;;;;10.36;56.54;100667.38;6922651;28;20208;-80
2021/12/16 07:11:40;;;;;;;21.40;12.97;;;;;;;9.16;59.17;100650.06;6922457;28;20225;-79
2021/12/16 07:15:03;;;;;;;19.47;13.60;;;;;;;9.75;58.67;100636.88;6923687;28;20214;-80
2021/12/16 07:18:25;;;;;;;21.37;13.57;;;;;;;10.01;57.93;100667.41;6900858;28;20628;-80
2021/12/16 07:21:48;;;;;;;15.70;11.73;;;;;;;10.06;58.04;100678.59;6895569;28;20709;-80
2021/12/16 07:25:10;;;;;;;17.07;12.70;;;;;;;9.64;58.47;100655.94;6895641;28;20207;-80
2021/12/16 07:28:32;;;;;;;19.50;12.07;;;;;;;10.10;57.72;100668.34;6894624;28;20214;-79
2021/12/16 07:31:54;;;;;;;19.93;13.07;;;;;;;10.46;56.56;100688.84;6895066;28;20238;-79
2021/12/16 07:35:19;;;;;;;15.20;11.30;;;;;;;10.45;56.72;100685.28;6895083;28;20231;-81
2021/12/16 07:38:43;;;;;;;14.87;11.43;;;;;;;10.33;57.05;100681.16;6895613;28;20652;-81
2021/12/16 07:42:06;;;;;;;18.13;11.67;;;;;;;10.25;56.64;100664.06;6895861;28;20223;-80
2021/12/16 07:45:29;;;;;;;16.37;11.87;;;;;;;9.94;57.31;100700.53;6895649;28;20203;-80
2021/12/16 07:48:51;;;;;;;16.37;11.37;;;;;;;9.99;58.30;100692.81;6898970;28;20221;-80
2021/12/16 07:52:16;;;;;;;14.97;10.87;;;;;;;9.93;57.34;100670.03;6900080;28;20238;-80
2021/12/16 07:55:41;;;;;;;16.97;11.57;;;;;;;10.02;57.39;100696.06;6901501;28;20300;-80
2021/12/16 07:59:04;;;;;;;18.87;12.50;;;;;;;9.84;58.01;100700.59;6900382;28;20270;-80
2021/12/16 08:02:28;;;;;;;15.73;11.20;;;;;;;10.20;57.40;100712.22;6898377;28;20233;-81
2021/12/16 08:05:54;;;;;;;14.13;11.37;;;;;;;10.25;57.28;100691.88;6900566;28;20206;-81
2021/12/16 08:09:16;;;;;;;19.20;12.17;;;;;;;10.28;56.99;100678.06;6895651;28;20199;-80
2021/12/16 08:12:39;;;;;;;15.27;10.60;;;;;;;10.47;56.36;100704.00;6900768;28;20230;-81
2021/12/16 08:16:01;;;;;;;18.33;10.90;;;;;;;10.45;56.45;100708.72;6900513;28;20230;-81
2021/12/16 08:19:23;;;;;;;15.67;11.07;;;;;;;10.41;55.82;100681.22;6901770;28;20214;-80
2021/12/16 08:22:45;;;;;;;16.47;11.63;;;;;;;10.30;56.38;100670.69;6901067;28;20263;-86
2021/12/16 08:26:07;;;;;;;17.13;11.40;;;;;;;10.16;56.43;100724.34;6900825;28;20210;-80
2021/12/16 08:29:30;;;;;;;19.67;11.70;;;;;;;9.74;58.92;100729.47;6895625;28;20211;-81
2021/12/16 08:32:51;;;;;;;17.63;11.80;;;;;;;10.25;57.12;100724.25;6898977;28;20230;-81
2021/12/16 08:36:13;;;;;;;15.53;11.50;;;;;;;10.20;57.27;100728.38;6891347;28;20241;-80
2021/12/16 08:39:36;;;;;;;14.17;10.30;;;;;;;10.42;56.74;100735.97;6907152;28;20241;-80
2021/12/16 08:42:57;;;;;;;13.87;10.27;;;;;;;10.40;56.46;100740.69;6898370;28;20234;-80
2021/12/16 08:46:23;;;;;;;13.50;10.33;;;;;;;10.45;56.84;100744.59;6891923;28;20199;-80
2021/12/16 08:49:45;;;;;;;12.43;10.13;;;;;;;10.64;56.50;100741.69;6914469;28;20199;-80
2021/12/16 08:53:08;;;;;;;17.07;10.87;;;;;;;10.59;56.10;100757.53;6880391;28;20230;-81
2021/12/16 08:56:30;;;;;;;15.73;10.93;;;;;;;10.47;56.86;100723.75;6900451;28;20301;-81
2021/12/16 08:59:52;;;;;;;16.97;11.13;;;;;;;10.61;57.34;100757.34;6910181;28;20290;-80
2021/12/16 09:03:15;;;;;;;15.60;10.63;;;;;;;10.80;56.21;100758.00;6890355;28;20575;-83
2021/12/16 09:06:37;;;;;;;14.47;10.17;;;;;;;10.81;55.96;100750.75;6871319;28;20264;-82
2021/12/16 09:09:59;;;;;;;16.33;10.70;;;;;;;10.71;55.27;100713.09;6872243;28;20678;-81
2021/12/16 09:13:21;;;;;;;15.63;10.20;;;;;;;11.05;55.00;100769.78;6892253;28;20608;-80
2021/12/16 09:16:42;;;;;;;16.70;10.43;;;;;;;10.51;55.93;100730.50;6898487;28;20225;-81
2021/12/16 09:20:06;;;;;;;14.00;10.40;;;;;;;10.74;55.92;100744.31;6899108;28;20210;-80
2021/12/16 09:23:30;;;;;;;15.67;11.40;;;;;;;10.93;55.62;100782.69;6898745;28;20225;-81
2021/12/16 09:26:51;;;;;;;13.87;11.00;;;;;;;10.93;55.51;100776.47;6898657;28;20215;-81
2021/12/16 09:30:17;;;;;;;14.30;10.53;;;;;;;10.98;55.45;100774.16;6898959;28;20214;-81
2021/12/16 09:33:42;;;;;;;15.40;11.07;;;;;;;11.01;54.60;100771.97;6895403;28;20219;-80
2021/12/16 09:37:05;;;;;;;14.13;10.43;;;;;;;10.95;54.71;100755.56;6885197;28;20227;-81
2021/12/16 09:40:28;;;;;;;13.40;10.47;;;;;;;11.27;54.75;100780.03;6877076;28;20208;-80
2021/12/16 09:43:52;;;;;;;15.67;10.27;;;;;;;11.37;53.97;100788.84;6889256;28;20896;-80
2021/12/16 09:47:14;;;;;;;17.67;11.27;;;;;;;10.72;56.29;100775.97;6869236;28;20203;-81
2021/12/16 09:50:36;;;;;;;14.20;10.57;;;;;;;10.85;55.76;100787.19;6887995;28;20232;-81
2021/12/16 09:54:04;;;;;;;13.07;10.37;;;;;;;10.97;55.81;100792.19;6897165;28;20221;-80
2021/12/16 09:57:26;;;;;;;14.30;10.93;;;;;;;11.12;55.20;100796.00;6897942;28;20197;-80
2021/12/16 10:00:48;;;;;;;14.93;10.07;;;;;;;11.19;55.20;100790.78;6897580;28;20344;-81
2021/12/16 10:04:13;;;;;;;15.17;10.77;;;;;;;11.25;54.76;100774.78;6897431;28;20212;-81
2021/12/16 10:07:35;;;;;;;13.20;10.33;;;;;;;11.17;55.16;100782.00;6898485;28;20249;-79
2021/12/16 10:10:59;;;;;;;15.97;11.30;;;;;;;11.03;54.65;100755.63;6897143;28;20225;-81
2021/12/16 10:14:33;;;;;;;14.83;10.57;;;;;;;10.73;55.86;100788.47;6897691;28;20263;-80
2021/12/16 10:17:55;;;;;;;16.20;11.23;;;;;;;10.82;55.62;100784.84;6897725;28;20183;-79
2021/12/16 10:21:22;;;;;;;15.40;11.40;;;;;;;11.02;55.58;100783.59;6870562;28;20240;-80
2021/12/16 10:24:43;;;;;;;16.63;12.20;;;;;;;10.81;56.06;100759.69;6870518;28;20200;-80
2021/12/16 10:28:10;;;;;;;15.33;11.67;;;;;;;10.67;56.30;100783.69;6871120;28;20216;-80
2021/12/16 10:31:36;;;;;;;12.50;9.77;;;;;;;10.99;55.30;100782.06;6869762;28;20645;-80
2021/12/16 10:34:58;;;;;;;14.50;10.93;;;;;;;11.17;55.16;100780.13;6869527;28;20225;-80
2021/12/16 10:38:21;;;;;;;14.57;10.53;;;;;;;11.31;54.38;100787.66;6894283;28;20663;-80
2021/12/16 10:41:46;;;;;;;13.57;9.93;;;;;;;11.37;54.11;100781.59;6896981;28;20702;-81
2021/12/16 10:49:31;;;;;;;14.43;10.03;;;;;;;11.64;53.62;100785.97;6937969;23;20235;-88
2021/12/16 10:53:46;;;;;;;13.17;10.13;;;;;;;11.64;53.55;100762.47;6926741;28;20245;-89
2021/12/16 10:57:15;;;;;;;17.63;10.87;;;;;;;10.12;54.00;100545.06;6927671;28;20227;-89
2021/12/16 11:00:54;;;;;;;14.97;11.37;;;;;;;10.56;53.84;100568.22;6928036;28;20217;-88
2021/12/16 11:04:26;;;;;;;13.27;10.23;;;;;;;11.15;53.60;100713.84;6927095;28;20215;-88
2021/12/16 11:08:04;;;;;;;14.73;11.10;;;;;;;11.48;53.46;100743.50;6928211;28;20581;-89
2021/12/16 11:11:28;;;;;;;12.63;10.93;;;;;;;11.90;53.08;100768.63;6928917;23;20535;-81
2021/12/16 11:14:52;;;;;;;16.13;10.60;;;;;;;11.98;52.63;100784.03;6897020;28;20235;-80
2021/12/16 11:18:17;;;;;;;13.07;9.87;;;;;;;11.47;53.71;100784.16;6897953;28;20209;-80
2021/12/16 11:21:40;;;;;;;13.67;10.20;;;;;;;11.93;53.10;100783.66;6897920;28;20600;-80
2021/12/16 11:25:13;;;;;;;12.87;10.27;;;;;;;11.99;52.41;100761.38;6898830;28;20289;-80
2021/12/16 11:28:36;;;;;;;14.40;10.17;;;;;;;11.88;53.50;100783.31;6909769;23;20230;-87
2021/12/16 11:31:58;;;;;;;12.13;9.60;;;;;;;11.59;53.52;100713.50;6910635;28;20203;-84
2021/12/16 11:35:42;;;;;;;13.90;10.10;;;;;;;11.94;53.01;100759.19;6916845;28;20219;-84
2021/12/16 11:39:09;;;;;;;13.67;10.30;;;;;;;12.06;52.87;100784.88;6868051;28;20204;-84
2021/12/16 11:42:31;;;;;;;12.80;9.33;;;;;;;11.92;53.03;100758.47;6866320;28;20218;-85
2021/12/16 11:45:53;;;;;;;13.73;10.80;;;;;;;12.08;53.11;100771.19;6894969;28;20222;-86
2021/12/16 11:49:23;;;;;;;12.33;9.67;;;;;;;12.01;53.09;100760.22;6895181;28;20233;-85
2021/12/16 11:52:52;;;;;;;14.17;9.80;;;;;;;12.23;52.45;100774.94;6895920;28;20231;-85
2021/12/16 11:56:15;;;;;;;14.40;9.53;;;;;;;12.03;53.01;100784.38;6894940;28;20608;-85
2021/12/16 11:59:40;;;;;;;13.73;10.80;;;;;;;12.09;52.99;100757.50;6891418;28;20212;-84
2021/12/16 12:03:07;;;;;;;14.17;10.50;;;;;;;11.70;53.50;100713.16;6899727;28;20192;-83
2021/12/16 12:06:31;;;;;;;13.73;10.07;;;;;;;12.48;52.16;100763.09;6884121;28;20250;-84
2021/12/16 12:09:55;;;;;;;13.17;10.33;;;;;;;12.42;52.05;100761.06;6866721;28;20205;-83
2021/12/16 12:13:20;;;;;;;14.07;10.07;;;;;;;12.24;52.43;100750.44;6871933;28;20199;-84
2021/12/16 12:16:44;;;;;;;14.53;10.00;;;;;;;12.32;51.98;100760.38;6879673;28;20237;-85
2021/12/16 12:20:08;;;;;;;14.10;9.97;;;;;;;12.17;52.69;100724.22;6880941;28;20219;-85
2021/12/16 12:23:30;;;;;;;13.53;9.63;;;;;;;12.35;53.29;100760.06;6886033;28;20211;-87
2021/12/16 12:26:55;;;;;;;18.50;11.70;;;;;;;11.90;54.45;100692.09;6878682;28;20235;-85
2021/12/16 12:30:25;;;;;;;14.17;10.23;;;;;;;12.25;52.64;100707.97;6873536;28;20204;-84
2021/12/16 12:33:47;;;;;;;12.90;10.20;;;;;;;12.35;51.29;100708.66;6888535;28;20202;-86
2021/12/16 12:37:11;;;;;;;14.00;10.43;;;;;;;12.50;52.40;100739.41;6882385;28;20232;-86
2021/12/16 12:40:40;;;;;;;12.63;10.07;;;;;;;12.64;52.35;100725.19;6880239;28;20677;-85
2021/12/16 12:44:05;;;;;;;13.33;9.60;;;;;;;12.65;51.79;100729.59;6871150;28;20581;-85
2021/12/16 12:47:28;;;;;;;13.33;10.67;;;;;;;12.17;51.78;100643.09;6872050;28;20221;-84
2021/12/16 12:50:53;;;;;;;13.50;10.37;;;;;;;12.39;52.70;100713.56;6873148;28;20229;-84
2021/12/16 12:54:25;;;;;;;13.27;10.53;;;;;;;12.54;52.63;100719.13;6882043;28;20220;-85
2021/12/16 12:57:50;;;;;;;14.30;9.93;;;;;;;12.47;52.22;100661.28;6882824;28;20232;-83
2021/12/16 13:01:13;;;;;;;14.93;9.63;;;;;;;12.77;51.47;100725.50;6878458;28;20197;-83
2021/12/16 13:04:46;;;;;;;14.43;9.30;;;;;;;12.24;52.05;100673.84;6868618;28;20205;-84
2021/12/16 13:08:12;;;;;;;13.80;10.03;;;;;;;12.34;53.35;100728.63;6894177;28;20235;-84
2021/12/16 13:11:34;;;;;;;12.03;9.40;;;;;;;12.18;53.31;100734.00;6899096;28;20208;-85
2021/12/16 13:15:09;;;;;;;10.80;9.10;;;;;;;12.60;52.57;100722.00;6897484;28;20200;-85
2021/12/16 13:26:34;;;;;;;12.20;9.10;;;;;;;12.53;51.63;100728.25;6889514;28;20311;-83
2021/12/16 13:30:15;;;;;;;9.80;7.67;;;;;;;12.76;51.22;100710.28;6870039;28;20209;-84
2021/12/16 13:33:46;;;;;;;10.47;8.47;;;;;;;12.62;51.38;100724.53;6869367;28;20247;-83
2021/12/16 13:37:25;;;;;;;12.13;8.70;;;;;;;12.69;51.36;100715.53;6882249;28;20232;-83
2021/12/16 13:40:48;;;;;;;11.47;8.23;;;;;;;11.81;52.93;100709.31;6787425;29;20613;-85
2021/12/16 13:44:15;;;;;;;10.27;8.37;;;;;;;12.47;51.17;100727.09;6777823;29;20262;-83
2021/12/16 14:03:44;;;;;;;12.33;9.33;;;;;;;11.17;55.79;100736.09;6746112;29;20206;-82
2021/12/16 14:07:39;;;;;;;11.63;8.80;;;;;;;11.18;56.00;100749.44;6761271;29;20234;-83
2021/12/16 14:11:15;;;;;;;14.13;9.93;;;;;;;11.75;54.87;100759.47;6708398;29;20302;-84
2021/12/16 14:14:54;;;;;;;13.50;9.10;;;;;;;12.14;53.97;100741.63;6711151;29;20728;-82
2021/12/16 14:22:56;;;;;;;11.43;9.20;;;;;;;12.35;53.54;100754.66;6801034;29;20237;-83
2021/12/16 14:37:19;;;;;;;10.40;8.17;;;;;;;12.56;51.99;100750.41;6809487;29;20332;-84
2021/12/16 14:41:05;;;;;;;11.97;8.57;;;;;;;12.46;52.11;100774.06;6781918;29;20253;-83
2021/12/16 14:48:22;;;;;;;11.53;8.73;;;;;;;12.51;53.21;100770.88;6861518;28;20704;-84
2021/12/16 14:51:43;;;;;;;14.03;8.50;;;;;;;12.09;53.30;100773.72;6869236;28;20752;-85
2021/12/16 14:55:08;;;;;;;10.90;8.40;;;;;;;11.77;54.26;100776.38;6864297;28;20201;-85
2021/12/16 14:58:31;;;;;;;10.10;8.27;;;;;;;11.97;54.11;100782.31;6867960;28;20223;-85
2021/12/16 15:01:57;;;;;;;10.10;8.10;;;;;;;11.64;54.98;100758.94;6862979;28;20209;-86
2021/12/16 15:05:31;;;;;;;14.23;9.20;;;;;;;11.66;54.93;100752.34;6875766;28;20201;-86
2021/12/16 15:09:04;;;;;;;11.63;9.20;;;;;;;11.22;55.67;100760.78;6843418;28;20198;-85
2021/12/16 15:12:35;;;;;;;11.63;9.00;;;;;;;11.12;56.70;100779.78;6871861;28;20279;-85
2021/12/16 15:38:38;;;;;;;10.60;8.63;;;;;;;10.67;56.57;100787.25;6881373;28;20649;-84
2021/12/16 15:45:46;;;;;;;12.77;8.50;;;;;;;10.84;55.49;100786.38;6875082;28;20641;-85
2021/12/16 15:49:09;;;;;;;12.27;9.17;;;;;;;10.91;56.05;100805.44;6862506;28;20294;-86
2021/12/16 15:52:40;;;;;;;13.43;10.53;;;;;;;10.88;56.01;100795.00;6852101;28;20202;-86
2021/12/16 15:56:06;;;;;;;13.67;9.63;;;;;;;10.83;56.34;100814.38;6857909;28;20247;-87
2021/12/16 16:00:00;;;;;;;13.97;8.93;;;;;;;10.90;55.62;100822.66;6861828;28;20226;-83
2021/12/16 16:03:20;;;;;;;14.20;9.67;;;;;;;11.05;55.26;100807.59;6866590;28;20275;-86
2021/12/16 16:06:47;;;;;;;14.43;9.13;;;;;;;10.86;55.12;100803.25;6862755;28;20228;-85
2021/12/16 16:10:13;;;;;;;12.27;8.97;;;;;;;10.59;57.70;100826.81;6881058;28;20196;-86
2021/12/16 16:13:40;;;;;;;10.83;8.40;;;;;;;10.19;57.49;100824.59;6891309;28;20333;-88
2021/12/16 16:17:12;;;;;;;15.70;8.17;;;;;;;10.48;58.46;100825.22;6864123;28;20243;-89
2021/12/16 16:20:34;;;;;;;10.67;8.53;;;;;;;10.45;55.85;100786.94;6867606;28;20298;-88
2021/12/16 16:24:03;;;;;;;13.13;9.20;;;;;;;10.49;55.99;100810.72;6874305;28;20204;-89
2021/12/16 16:27:29;;;;;;;12.03;8.40;;;;;;;10.73;55.02;100820.84;6872132;28;20244;-89
2021/12/16 16:30:53;;;;;;;12.63;9.10;;;;;;;10.06;56.31;100825.97;6872935;28;20203;-85
2021/12/16 16:34:18;;;;;;;10.70;8.30;;;;;;;9.85;56.94;100830.75;6883962;28;20824;-87
2021/12/16 16:37:40;;;;;;;12.33;8.53;;;;;;;9.54;57.64;100773.69;6874282;28;20235;-86
2021/12/16 16:41:06;;;;;;;10.70;8.00;;;;;;;10.23;56.87;100826.00;6877606;28;20216;-87
2021/12/16 16:44:31;;;;;;;10.17;7.10;;;;;;;10.13;56.58;100813.56;6895203;28;20198;-87
2021/12/16 16:48:04;;;;;;;10.97;8.90;;;;;;;10.27;56.06;100824.66;6887899;28;20240;-86
2021/12/16 16:51:30;;;;;;;14.00;8.30;;;;;;;9.90;56.96;100817.69;6872464;28;20225;-87
2021/12/16 16:54:54;;;;;;;9.93;8.20;;;;;;;9.47;57.42;100801.38;6871184;28;20628;-87
2021/12/16 16:58:16;;;;;;;9.73;8.27;;;;;;;9.34;57.83;100744.34;6873054;28;20238;-87
2021/12/16 17:01:40;;;;;;;12.03;7.17;;;;;;;9.56;57.63;100777.06;6873336;28;20207;-87
2021/12/16 17:05:06;;;;;;;13.47;7.50;;;;;;;9.54;58.28;100760.22;6876085;28;20209;-88
2021/12/16 17:08:30;;;;;;;9.30;7.83;;;;;;;9.51;58.41;100790.13;6900824;28;20235;-88
2021/12/16 17:11:53;;;;;;;17.57;11.00;;;;;;;8.60;61.09;100800.97;6883437;28;20204;-86
2021/12/16 17:15:32;;;;;;;23.67;14.20;;;;;;;9.36;60.35;100799.72;6887914;28;20289;-86
2021/12/16 17:18:58;;;;;;;12.40;9.93;;;;;;;9.88;58.63;100803.53;6898290;28;20576;-87
2021/12/16 17:22:24;;;;;;;10.23;7.83;;;;;;;9.18;59.15;100757.59;6898450;28;20210;-87
2021/12/16 17:25:49;;;;;;;16.17;9.20;;;;;;;9.57;58.86;100804.88;6898111;28;20693;-86
2021/12/16 17:29:17;;;;;;;14.80;9.27;;;;;;;9.42;58.80;100769.50;6907122;28;20238;-89
2021/12/16 17:32:45;;;;;;;11.73;8.13;;;;;;;9.42;58.88;100822.50;6907423;28;20226;-86
2021/12/16 17:36:08;;;;;;;11.83;8.77;;;;;;;9.46;59.03;100815.84;6880937;28;20242;-87
2021/12/16 17:39:32;;;;;;;11.67;9.03;;;;;;;9.72;58.34;100819.50;6874840;28;20202;-88
2021/12/16 17:42:56;;;;;;;10.90;8.20;;;;;;;9.68;57.72;100793.88;6872192;28;20680;-88
2021/12/16 17:46:19;;;;;;;10.90;8.20;;;;;;;9.53;57.46;100781.91;6874446;28;20318;-91
2021/12/16 17:49:44;;;;;;;13.50;9.37;;;;;;;9.27;57.17;100770.16;6875982;28;20203;-88
2021/12/16 17:53:07;;;;;;;16.73;11.90;;;;;;;9.18;57.32;100801.50;6876815;28;20216;-87
2021/12/16 17:56:29;;;;;;;18.87;10.83;;;;;;;8.29;59.13;100751.91;6876958;28;20235;-88
2021/12/16 17:59:51;;;;;;;16.90;11.17;;;;;;;9.02;59.23;100806.66;6876210;28;20216;-88
2021/12/16 18:03:15;;;;;;;14.53;10.87;;;;;;;9.29;58.32;100816.63;6874283;28;20210;-88
2021/12/16 18:06:41;;;;;;;12.70;9.53;;;;;;;8.87;58.42;100777.69;6875766;28;20348;-88
2021/12/16 18:10:19;;;;;;;17.03;11.00;;;;;;;8.56;59.58;100811.19;6876050;28;20192;-87
2021/12/16 18:13:43;;;;;;;15.00;10.97;;;;;;;8.50;59.36;100806.38;6864741;28;20207;-88
2021/12/16 18:17:09;;;;;;;11.93;9.10;;;;;;;8.85;58.55;100833.44;6868435;28;20604;-88
2021/12/16 18:24:10;;;;;;;16.80;11.20;;;;;;;7.60;60.49;100777.16;6900755;28;20305;-88
2021/12/16 18:27:37;;;;;;;15.23;11.90;;;;;;;8.35;59.99;100834.66;6888469;28;20318;-88
2021/12/16 18:31:05;;;;;;;14.50;10.70;;;;;;;8.46;58.92;100820.22;6872048;28;20669;-86
2021/12/16 18:34:32;;;;;;;15.43;10.77;;;;;;;7.91;59.83;100797.53;6871522;28;20186;-85
2021/12/16 18:42:21;;;;;;;19.00;11.50;;;;;;;8.44;58.69;100846.41;6746023;29;20283;-89
2021/12/16 18:46:21;;;;;;;14.87;10.27;;;;;;;7.70;59.26;100855.03;6793086;29;20211;-87
2021/12/16 18:49:52;;;;;;;20.60;13.00;;;;;;;7.34;60.15;100800.13;6788252;29;20223;-88
2021/12/16 18:57:06;;;;;;;25.97;15.27;;;;;;;8.08;58.84;100855.97;6792770;29;20236;-87
2021/12/16 19:00:28;;;;;;;26.13;15.20;;;;;;;7.56;58.87;100780.25;6793437;29;20207;-87
2021/12/16 19:04:06;;;;;;;19.63;11.63;;;;;;;7.36;59.93;100867.09;6794604;29;20289;-87
2021/12/16 19:11:13;;;;;;;16.73;11.50;;;;;;;7.81;59.42;100834.31;6786130;29;20247;-86
2021/12/16 19:14:39;;;;;;;15.13;11.53;;;;;;;8.00;58.74;100841.53;6761810;29;20240;-88
2021/12/16 19:18:04;;;;;;;16.50;11.23;;;;;;;7.77;58.43;100859.72;6838438;28;20570;-87
2021/12/16 19:21:30;;;;;;;17.93;10.77;;;;;;;7.74;58.68;100854.66;6874505;28;20209;-86
2021/12/16 19:24:52;;;;;;;15.20;10.80;;;;;;;7.99;58.08;100853.25;6869480;28;20562;-87
2021/12/16 19:28:14;;;;;;;16.33;10.57;;;;;;;6.86;59.54;100783.00;6869269;28;20231;-86
2021/12/16 19:35:54;;;;;;;23.37;14.33;;;;;;;7.18;60.35;100874.06;6839522;28;20231;-85
2021/12/16 19:43:32;;;;;;;20.87;13.63;;;;;;;7.88;58.43;100877.53;6787849;29;20211;-85
2021/12/16 19:47:03;;;;;;;17.03;11.63;;;;;;;7.73;58.10;100871.72;6790393;29;20240;-87
2021/12/16 19:50:32;;;;;;;17.30;11.00;;;;;;;7.46;58.09;100838.44;6794495;29;20195;-87
2021/12/16 19:53:54;;;;;;;20.27;12.40;;;;;;;7.26;58.93;100850.91;6818019;29;20224;-86
2021/12/16 19:57:19;;;;;;;23.37;14.20;;;;;;;6.30;60.15;100803.06;6827935;29;20227;-87
2021/12/16 20:00:49;;;;;;;18.83;14.23;;;;;;;7.06;59.87;100853.63;6814327;28;20250;-87
2021/12/16 20:04:14;;;;;;;23.93;16.33;;;;;;;6.79;60.63;100867.59;6805867;29;20357;-87
2021/12/16 20:07:40;;;;;;;23.93;15.90;;;;;;;7.19;60.72;100868.53;6782701;29;20219;-86
2021/12/16 20:11:05;;;;;;;22.17;14.77;;;;;;;6.89;60.58;100855.09;6799317;29;20266;-85
2021/12/16 20:14:30;;;;;;;19.53;12.93;;;;;;;6.61;59.39;100788.75;6818643;29;20206;-85
2021/12/16 20:17:51;;;;;;;21.07;14.17;;;;;;;6.42;60.86;100849.44;6818324;29;20262;-85
2021/12/16 20:21:17;;;;;;;29.30;16.37;;;;;;;6.39;60.61;100881.81;6868663;28;20202;-84
2021/12/16 20:33:26;;;;;;;19.10;12.60;;;;;;;7.02;59.93;100887.09;6742148;29;20226;-88
2021/12/16 20:36:51;;;;;;;18.50;12.77;;;;;;;7.30;58.50;100854.22;6775454;29;20252;-85
2021/12/16 20:40:16;;;;;;;19.23;11.77;;;;;;;7.30;58.06;100871.13;6871186;28;20215;-88
2021/12/16 20:43:45;;;;;;;19.87;12.87;;;;;;;7.14;58.51;100881.50;6904894;28;20201;-86
2021/12/16 20:47:12;;;;;;;19.10;12.93;;;;;;;6.78;59.46;100884.66;6897311;28;20281;-85
2021/12/16 20:50:36;;;;;;;19.87;12.23;;;;;;;7.03;59.26;100886.09;6900761;28;20212;-88
2021/12/16 21:02:56;;;;;;;18.43;11.93;;;;;;;7.06;58.57;100875.09;6911778;28;20633;-85
2021/12/16 21:10:20;;;;;;;18.60;11.93;;;;;;;6.43;59.12;100897.50;6905200;28;20201;-85
2021/12/16 21:13:44;;;;;;;21.20;12.77;;;;;;;6.35;59.78;100880.38;6906294;28;20226;-86
2021/12/16 21:17:07;;;;;;;19.37;12.57;;;;;;;6.18;60.05;100875.59;6863598;28;20229;-85
2021/12/16 21:20:30;;;;;;;19.13;12.63;;;;;;;6.40;59.92;100902.28;6877162;28;20315;-87
2021/12/16 21:27:50;;;;;;;20.83;13.20;;;;;;;5.75;60.41;100789.03;6878265;28;20227;-89
2021/12/16 21:31:16;;;;;;;19.50;13.10;;;;;;;6.40;60.69;100880.84;6857271;28;20217;-87
2021/12/16 21:34:40;;;;;;;16.17;11.67;;;;;;;6.59;59.87;100886.34;6890399;28;20200;-85
2021/12/16 21:38:06;;;;;;;20.33;13.27;;;;;;;6.49;59.82;100898.84;6880618;28;20238;-87
2021/12/16 21:41:30;;;;;;;21.73;13.20;;;;;;;6.98;59.11;100901.75;6878879;28;20212;-87
2021/12/16 21:45:05;;;;;;;19.33;12.77;;;;;;;6.92;59.06;100907.63;6894939;28;20200;-87
2021/12/16 21:49:15;;;;;;;19.10;12.67;;;;;;;6.53;59.56;100901.13;6893690;28;20229;-87
2021/12/16 21:52:37;;;;;;;22.20;14.03;;;;;;;6.56;60.33;100908.94;6861933;28;20819;-85
2021/12/16 21:55:58;;;;;;;19.90;14.40;;;;;;;6.36;59.89;100844.59;6880635;28;20228;-86
2021/12/16 21:59:22;;;;;;;23.60;14.23;;;;;;;6.78;60.18;100883.84;6904864;28;20228;-86
